sensor_id;sensor_type;location;lat;lon;timestamp;temperature;humidity
30702;DHT22;17451;49.908;7.980;2022-08-19T00:02:21;23.20;99.90
30702;DHT22;17451;49.908;7.980;2022-08-19T00:04:46;23.20;99.90
30702;DHT22;17451;49.908;7.980;2022-08-19T00:07:13;23.10;99.90
30702;DHT22;17451;49.908;7.980;2022-08-19T00:09:39;23.10;99.90
30702;DHT22;17451;49.908;7.980;2022-08-19T00:12:04;23.20;99.90
30702;DHT22;17451;49.908;7.980;2022-08-19T00:14:31;23.20;99.90
30702;DHT22;17451;49.908;7.980;2022-08-19T00:16:56;23.20;99.90
30702;DHT22;17451;49.908;7.980;2022-08-19T00:19:22;23.20;99.90
30702;DHT22;17451;49.908;7.980;2022-08-19T00:21:48;23.10;99.90
30702;DHT22;17451;49.908;7.980;2022-08-19T00:24:14;23.10;99.90
30702;DHT22;17451;49.908;7.980;2022-08-19T00:26:41;23.10;99.90
30702;DHT22;17451;49.908;7.980;2022-08-19T00:29:08;23.10;99.90
30702;DHT22;17451;49.908;7.980;2022-08-19T00:31:34;23.10;99.90
30702;DHT22;17451;49.908;7.980;2022-08-19T00:34:00;23.10;99.90
30702;DHT22;17451;49.908;7.980;2022-08-19T00:36:26;23.20;99.90
30702;DHT22;17451;49.908;7.980;2022-08-19T00:38:53;23.10;99.90
30702;DHT22;17451;49.908;7.980;2022-08-19T00:41:20;23.10;99.90
30702;DHT22;17451;49.908;7.980;2022-08-19T00:43:57;23.20;99.90
30702;DHT22;17451;49.908;7.980;2022-08-19T00:46:23;23.30;99.90
30702;DHT22;17451;49.908;7.980;2022-08-19T00:48:48;23.20;99.90
30702;DHT22;17451;49.908;7.980;2022-08-19T00:51:14;23.20;99.90
30702;DHT22;17451;49.908;7.980;2022-08-19T00:53:39;23.30;99.90
30702;DHT22;17451;49.908;7.980;2022-08-19T00:56:05;23.20;99.90
30702;DHT22;17451;49.908;7.980;2022-08-19T00:58:32;23.20;99.90
30702;DHT22;17451;49.908;7.980;2022-08-19T01:00:59;23.30;99.90
30702;DHT22;17451;49.908;7.980;2022-08-19T01:03:25;23.20;99.90
30702;DHT22;17451;49.908;7.980;2022-08-19T01:05:51;23.30;99.90
30702;DHT22;17451;49.908;7.980;2022-08-19T01:08:19;23.20;99.90
30702;DHT22;17451;49.908;7.980;2022-08-19T01:10:50;23.20;99.90
30702;DHT22;17451;49.908;7.980;2022-08-19T01:13:19;23.20;99.90
30702;DHT22;17451;49.908;7.980;2022-08-19T01:15:47;23.10;99.90
30702;DHT22;17451;49.908;7.980;2022-08-19T01:18:15;23.10;99.90
30702;DHT22;17451;49.908;7.980;2022-08-19T01:20:43;23.00;99.90
30702;DHT22;17451;49.908;7.980;2022-08-19T01:23:09;23.00;99.90
30702;DHT22;17451;49.908;7.980;2022-08-19T01:25:44;23.00;99.90
30702;DHT22;17451;49.908;7.980;2022-08-19T01:28:24;23.00;99.90
30702;DHT22;17451;49.908;7.980;2022-08-19T01:30:51;23.00;99.90
30702;DHT22;17451;49.908;7.980;2022-08-19T01:33:16;23.00;99.90
30702;DHT22;17451;49.908;7.980;2022-08-19T01:35:42;23.00;99.90
30702;DHT22;17451;49.908;7.980;2022-08-19T01:38:10;22.90;99.90
30702;DHT22;17451;49.908;7.980;2022-08-19T01:40:38;23.00;99.90
30702;DHT22;17451;49.908;7.980;2022-08-19T01:43:04;23.00;99.90
30702;DHT22;17451;49.908;7.980;2022-08-19T01:45:32;23.00;99.90
30702;DHT22;17451;49.908;7.980;2022-08-19T01:47:58;22.90;99.90
30702;DHT22;17451;49.908;7.980;2022-08-19T01:50:24;22.80;99.90
30702;DHT22;17451;49.908;7.980;2022-08-19T01:52:49;22.90;99.90
30702;DHT22;17451;49.908;7.980;2022-08-19T01:55:17;22.90;99.90
30702;DHT22;17451;49.908;7.980;2022-08-19T01:57:44;22.90;99.90
30702;DHT22;17451;49.908;7.980;2022-08-19T02:00:12;22.90;99.90
30702;DHT22;17451;49.908;7.980;2022-08-19T02:02:39;22.90;99.90
30702;DHT22;17451;49.908;7.980;2022-08-19T02:05:05;22.90;99.90
30702;DHT22;17451;49.908;7.980;2022-08-19T02:07:32;22.90;99.90
30702;DHT22;17451;49.908;7.980;2022-08-19T02:09:58;22.90;99.90
30702;DHT22;17451;49.908;7.980;2022-08-19T02:12:23;22.90;99.90
30702;DHT22;17451;49.908;7.980;2022-08-19T02:14:49;22.90;99.90
30702;DHT22;17451;49.908;7.980;2022-08-19T02:17:14;22.90;99.90
30702;DHT22;17451;49.908;7.980;2022-08-19T02:19:40;22.90;99.90
30702;DHT22;17451;49.908;7.980;2022-08-19T02:22:06;22.90;99.90
30702;DHT22;17451;49.908;7.980;2022-08-19T02:24:31;22.90;99.90
30702;DHT22;17451;49.908;7.980;2022-08-19T02:26:57;22.90;99.90
30702;DHT22;17451;49.908;7.980;2022-08-19T02:29:23;22.90;99.90
30702;DHT22;17451;49.908;7.980;2022-08-19T02:31:49;22.80;99.90
30702;DHT22;17451;49.908;7.980;2022-08-19T02:34:16;22.90;99.90
30702;DHT22;17451;49.908;7.980;2022-08-19T02:36:41;22.80;99.90
30702;DHT22;17451;49.908;7.980;2022-08-19T02:39:07;22.80;99.90
30702;DHT22;17451;49.908;7.980;2022-08-19T02:41:33;22.90;99.90
30702;DHT22;17451;49.908;7.980;2022-08-19T02:43:59;22.90;99.90
30702;DHT22;17451;49.908;7.980;2022-08-19T02:46:30;22.90;99.90
30702;DHT22;17451;49.908;7.980;2022-08-19T02:48:57;22.90;99.90
30702;DHT22;17451;49.908;7.980;2022-08-19T02:51:23;22.80;99.90
30702;DHT22;17451;49.908;7.980;2022-08-19T02:53:49;22.80;99.90
30702;DHT22;17451;49.908;7.980;2022-08-19T02:56:15;22.80;99.90
30702;DHT22;17451;49.908;7.980;2022-08-19T02:58:41;22.80;99.90
30702;DHT22;17451;49.908;7.980;2022-08-19T03:01:08;22.80;99.90
30702;DHT22;17451;49.908;7.980;2022-08-19T03:03:34;22.80;99.90
30702;DHT22;17451;49.908;7.980;2022-08-19T03:06:10;22.80;99.90
30702;DHT22;17451;49.908;7.980;2022-08-19T03:08:38;22.90;99.90
30702;DHT22;17451;49.908;7.980;2022-08-19T03:11:04;22.90;99.90
30702;DHT22;17451;49.908;7.980;2022-08-19T03:13:30;22.80;99.90
30702;DHT22;17451;49.908;7.980;2022-08-19T03:15:55;22.70;99.90
30702;DHT22;17451;49.908;7.980;2022-08-19T03:18:21;22.60;99.90
30702;DHT22;17451;49.908;7.980;2022-08-19T03:20:47;22.60;99.90
30702;DHT22;17451;49.908;7.980;2022-08-19T03:23:13;22.60;99.90
30702;DHT22;17451;49.908;7.980;2022-08-19T03:25:40;22.50;99.90
30702;DHT22;17451;49.908;7.980;2022-08-19T03:28:11;22.50;99.90
30702;DHT22;17451;49.908;7.980;2022-08-19T03:30:37;22.40;99.90
30702;DHT22;17451;49.908;7.980;2022-08-19T03:33:05;22.40;99.90
30702;DHT22;17451;49.908;7.980;2022-08-19T03:35:31;22.30;99.90
30702;DHT22;17451;49.908;7.980;2022-08-19T03:37:57;22.30;99.90
30702;DHT22;17451;49.908;7.980;2022-08-19T03:40:23;22.30;99.90
30702;DHT22;17451;49.908;7.980;2022-08-19T03:42:49;22.20;99.90
30702;DHT22;17451;49.908;7.980;2022-08-19T03:45:15;22.20;99.90
30702;DHT22;17451;49.908;7.980;2022-08-19T03:47:40;22.20;99.90
30702;DHT22;17451;49.908;7.980;2022-08-19T03:50:06;22.10;99.90
30702;DHT22;17451;49.908;7.980;2022-08-19T03:52:33;22.20;99.90
30702;DHT22;17451;49.908;7.980;2022-08-19T03:54:59;22.20;99.90
30702;DHT22;17451;49.908;7.980;2022-08-19T03:57:25;22.20;99.90
30702;DHT22;17451;49.908;7.980;2022-08-19T03:59:50;22.20;99.90
30702;DHT22;17451;49.908;7.980;2022-08-19T04:02:16;22.20;99.90
30702;DHT22;17451;49.908;7.980;2022-08-19T04:04:42;22.10;99.90
30702;DHT22;17451;49.908;7.980;2022-08-19T04:07:08;22.10;99.90
30702;DHT22;17451;49.908;7.980;2022-08-19T04:09:34;22.10;99.90
30702;DHT22;17451;49.908;7.980;2022-08-19T04:12:02;22.20;99.90
30702;DHT22;17451;49.908;7.980;2022-08-19T04:14:29;22.10;99.90
30702;DHT22;17451;49.908;7.980;2022-08-19T04:16:55;22.10;99.90
30702;DHT22;17451;49.908;7.980;2022-08-19T04:19:21;22.10;99.90
30702;DHT22;17451;49.908;7.980;2022-08-19T04:21:49;22.00;99.90
30702;DHT22;17451;49.908;7.980;2022-08-19T04:24:15;22.00;99.90
30702;DHT22;17451;49.908;7.980;2022-08-19T04:26:41;22.00;99.90
30702;DHT22;17451;49.908;7.980;2022-08-19T04:29:12;22.00;99.90
30702;DHT22;17451;49.908;7.980;2022-08-19T04:31:38;21.90;99.90
30702;DHT22;17451;49.908;7.980;2022-08-19T04:34:08;21.90;99.90
30702;DHT22;17451;49.908;7.980;2022-08-19T04:36:38;21.90;99.90
30702;DHT22;17451;49.908;7.980;2022-08-19T04:39:05;21.80;99.90
30702;DHT22;17451;49.908;7.980;2022-08-19T04:41:31;21.90;99.90
30702;DHT22;17451;49.908;7.980;2022-08-19T04:44:15;21.80;99.90
30702;DHT22;17451;49.908;7.980;2022-08-19T04:46:47;21.70;99.90
30702;DHT22;17451;49.908;7.980;2022-08-19T04:49:13;21.70;99.90
30702;DHT22;17451;49.908;7.980;2022-08-19T04:51:40;21.70;99.90
30702;DHT22;17451;49.908;7.980;2022-08-19T04:54:06;21.70;99.90
30702;DHT22;17451;49.908;7.980;2022-08-19T04:56:31;21.60;99.90
30702;DHT22;17451;49.908;7.980;2022-08-19T04:58:57;21.60;99.90
30702;DHT22;17451;49.908;7.980;2022-08-19T05:01:28;21.60;99.90
30702;DHT22;17451;49.908;7.980;2022-08-19T05:03:55;21.50;99.90
30702;DHT22;17451;49.908;7.980;2022-08-19T05:06:22;21.50;99.90
30702;DHT22;17451;49.908;7.980;2022-08-19T05:08:48;21.50;99.90
30702;DHT22;17451;49.908;7.980;2022-08-19T05:11:24;21.50;99.90
30702;DHT22;17451;49.908;7.980;2022-08-19T05:13:51;21.50;99.90
30702;DHT22;17451;49.908;7.980;2022-08-19T05:16:18;21.60;99.90
30702;DHT22;17451;49.908;7.980;2022-08-19T05:18:44;21.50;99.90
30702;DHT22;17451;49.908;7.980;2022-08-19T05:21:28;21.60;99.90
30702;DHT22;17451;49.908;7.980;2022-08-19T05:24:13;21.70;99.90
30702;DHT22;17451;49.908;7.980;2022-08-19T05:26:40;21.70;99.90
30702;DHT22;17451;49.908;7.980;2022-08-19T05:29:07;21.80;99.90
30702;DHT22;17451;49.908;7.980;2022-08-19T05:31:34;21.80;99.90
30702;DHT22;17451;49.908;7.980;2022-08-19T05:34:00;21.80;99.90
30702;DHT22;17451;49.908;7.980;2022-08-19T05:36:27;21.80;99.90
30702;DHT22;17451;49.908;7.980;2022-08-19T05:38:53;21.80;99.90
30702;DHT22;17451;49.908;7.980;2022-08-19T05:41:19;21.90;99.90
30702;DHT22;17451;49.908;7.980;2022-08-19T05:43:45;21.90;99.90
30702;DHT22;17451;49.908;7.980;2022-08-19T05:46:18;21.90;99.90
30702;DHT22;17451;49.908;7.980;2022-08-19T05:48:44;22.00;99.90
30702;DHT22;17451;49.908;7.980;2022-08-19T05:51:09;22.00;99.90
30702;DHT22;17451;49.908;7.980;2022-08-19T05:53:35;22.10;99.90
30702;DHT22;17451;49.908;7.980;2022-08-19T05:56:05;22.10;99.90
30702;DHT22;17451;49.908;7.980;2022-08-19T05:58:32;22.20;99.90
30702;DHT22;17451;49.908;7.980;2022-08-19T06:00:58;22.30;99.90
30702;DHT22;17451;49.908;7.980;2022-08-19T06:03:32;22.40;99.90
30702;DHT22;17451;49.908;7.980;2022-08-19T06:05:58;22.40;99.90
30702;DHT22;17451;49.908;7.980;2022-08-19T06:08:25;22.50;99.90
30702;DHT22;17451;49.908;7.980;2022-08-19T06:10:51;22.70;99.90
30702;DHT22;17451;49.908;7.980;2022-08-19T06:13:16;22.90;99.90
30702;DHT22;17451;49.908;7.980;2022-08-19T06:15:45;23.00;99.90
30702;DHT22;17451;49.908;7.980;2022-08-19T06:18:12;23.20;99.90
30702;DHT22;17451;49.908;7.980;2022-08-19T06:20:37;23.20;99.90
30702;DHT22;17451;49.908;7.980;2022-08-19T06:23:03;23.40;99.90
30702;DHT22;17451;49.908;7.980;2022-08-19T06:25:29;23.40;99.90
30702;DHT22;17451;49.908;7.980;2022-08-19T06:27:55;23.50;99.90
30702;DHT22;17451;49.908;7.980;2022-08-19T06:30:20;23.70;99.90
30702;DHT22;17451;49.908;7.980;2022-08-19T06:32:46;23.80;99.90
30702;DHT22;17451;49.908;7.980;2022-08-19T06:35:12;23.90;99.90
30702;DHT22;17451;49.908;7.980;2022-08-19T06:37:38;23.90;99.90
30702;DHT22;17451;49.908;7.980;2022-08-19T06:40:04;24.00;99.90
30702;DHT22;17451;49.908;7.980;2022-08-19T06:42:30;24.10;99.90
30702;DHT22;17451;49.908;7.980;2022-08-19T06:44:56;24.20;99.90
30702;DHT22;17451;49.908;7.980;2022-08-19T06:47:23;24.20;99.90
30702;DHT22;17451;49.908;7.980;2022-08-19T06:49:48;24.20;99.90
30702;DHT22;17451;49.908;7.980;2022-08-19T06:52:14;24.30;99.90
30702;DHT22;17451;49.908;7.980;2022-08-19T06:54:41;24.40;99.90
30702;DHT22;17451;49.908;7.980;2022-08-19T06:57:07;24.40;99.90
30702;DHT22;17451;49.908;7.980;2022-08-19T06:59:38;24.40;99.90
30702;DHT22;17451;49.908;7.980;2022-08-19T07:02:05;24.50;99.90
30702;DHT22;17451;49.908;7.980;2022-08-19T07:04:32;24.70;99.90
30702;DHT22;17451;49.908;7.980;2022-08-19T07:07:00;24.70;99.90
30702;DHT22;17451;49.908;7.980;2022-08-19T07:09:26;24.80;99.90
30702;DHT22;17451;49.908;7.980;2022-08-19T07:11:52;24.90;99.90
30702;DHT22;17451;49.908;7.980;2022-08-19T07:14:22;24.80;99.90
30702;DHT22;17451;49.908;7.980;2022-08-19T07:16:48;24.80;99.90
30702;DHT22;17451;49.908;7.980;2022-08-19T07:19:14;24.90;99.90
30702;DHT22;17451;49.908;7.980;2022-08-19T07:21:40;24.80;99.90
30702;DHT22;17451;49.908;7.980;2022-08-19T07:24:06;24.70;99.90
30702;DHT22;17451;49.908;7.980;2022-08-19T07:26:33;24.60;99.90
30702;DHT22;17451;49.908;7.980;2022-08-19T07:28:59;24.40;99.90
30702;DHT22;17451;49.908;7.980;2022-08-19T07:31:27;24.40;99.90
30702;DHT22;17451;49.908;7.980;2022-08-19T07:33:53;24.50;99.90
30702;DHT22;17451;49.908;7.980;2022-08-19T07:36:24;24.40;99.90
30702;DHT22;17451;49.908;7.980;2022-08-19T07:38:51;24.50;99.90
30702;DHT22;17451;49.908;7.980;2022-08-19T07:41:18;24.50;99.90
30702;DHT22;17451;49.908;7.980;2022-08-19T07:43:44;24.60;99.90
30702;DHT22;17451;49.908;7.980;2022-08-19T07:46:11;24.70;99.90
30702;DHT22;17451;49.908;7.980;2022-08-19T07:48:39;24.70;99.90
30702;DHT22;17451;49.908;7.980;2022-08-19T07:51:05;24.80;99.90
30702;DHT22;17451;49.908;7.980;2022-08-19T07:53:33;24.80;99.90
30702;DHT22;17451;49.908;7.980;2022-08-19T07:55:59;24.90;99.90
30702;DHT22;17451;49.908;7.980;2022-08-19T07:58:28;24.90;99.90
30702;DHT22;17451;49.908;7.980;2022-08-19T08:00:53;24.90;99.90
30702;DHT22;17451;49.908;7.980;2022-08-19T08:03:20;25.10;99.90
30702;DHT22;17451;49.908;7.980;2022-08-19T08:06:06;25.10;99.90
30702;DHT22;17451;49.908;7.980;2022-08-19T08:08:50;25.20;99.90
30702;DHT22;17451;49.908;7.980;2022-08-19T08:11:35;25.30;99.90
30702;DHT22;17451;49.908;7.980;2022-08-19T08:14:01;25.40;99.90
30702;DHT22;17451;49.908;7.980;2022-08-19T08:16:27;25.40;99.90
30702;DHT22;17451;49.908;7.980;2022-08-19T08:18:55;25.50;99.90
30702;DHT22;17451;49.908;7.980;2022-08-19T08:21:20;25.60;99.90
30702;DHT22;17451;49.908;7.980;2022-08-19T08:23:46;25.80;99.90
30702;DHT22;17451;49.908;7.980;2022-08-19T08:26:12;25.90;99.90
30702;DHT22;17451;49.908;7.980;2022-08-19T08:28:39;26.00;99.90
30702;DHT22;17451;49.908;7.980;2022-08-19T08:31:05;26.10;99.90
30702;DHT22;17451;49.908;7.980;2022-08-19T08:33:31;26.10;99.90
30702;DHT22;17451;49.908;7.980;2022-08-19T08:35:56;26.30;99.90
30702;DHT22;17451;49.908;7.980;2022-08-19T08:38:22;26.40;99.90
30702;DHT22;17451;49.908;7.980;2022-08-19T08:40:49;26.50;99.90
30702;DHT22;17451;49.908;7.980;2022-08-19T08:46:10;26.90;99.90
30702;DHT22;17451;49.908;7.980;2022-08-19T08:48:37;27.00;99.90
30702;DHT22;17451;49.908;7.980;2022-08-19T08:51:05;27.20;99.90
30702;DHT22;17451;49.908;7.980;2022-08-19T08:53:32;27.30;99.90
30702;DHT22;17451;49.908;7.980;2022-08-19T08:56:00;27.40;99.50
30702;DHT22;17451;49.908;7.980;2022-08-19T08:58:29;27.50;99.40
30702;DHT22;17451;49.908;7.980;2022-08-19T09:00:59;27.60;99.30
30702;DHT22;17451;49.908;7.980;2022-08-19T09:03:26;27.60;98.90
30702;DHT22;17451;49.908;7.980;2022-08-19T09:09:01;27.70;98.70
30702;DHT22;17451;49.908;7.980;2022-08-19T09:16:51;28.10;97.30
30702;DHT22;17451;49.908;7.980;2022-08-19T09:19:16;28.20;97.00
30702;DHT22;17451;49.908;7.980;2022-08-19T09:21:42;28.30;96.40
30702;DHT22;17451;49.908;7.980;2022-08-19T09:24:08;28.50;96.20
30702;DHT22;17451;49.908;7.980;2022-08-19T09:26:34;28.70;95.70
30702;DHT22;17451;49.908;7.980;2022-08-19T09:29:00;29.00;95.10
30702;DHT22;17451;49.908;7.980;2022-08-19T09:31:27;29.30;94.80
30702;DHT22;17451;49.908;7.980;2022-08-19T09:33:53;29.50;94.00
30702;DHT22;17451;49.908;7.980;2022-08-19T09:36:23;29.90;93.10
30702;DHT22;17451;49.908;7.980;2022-08-19T09:38:50;30.30;91.80
30702;DHT22;17451;49.908;7.980;2022-08-19T09:41:20;30.70;91.40
30702;DHT22;17451;49.908;7.980;2022-08-19T09:43:47;31.10;90.60
30702;DHT22;17451;49.908;7.980;2022-08-19T09:46:13;31.30;90.40
30702;DHT22;17451;49.908;7.980;2022-08-19T09:48:39;31.50;88.60
30702;DHT22;17451;49.908;7.980;2022-08-19T09:51:10;31.90;87.90
30702;DHT22;17451;49.908;7.980;2022-08-19T09:53:36;32.00;85.20
30702;DHT22;17451;49.908;7.980;2022-08-19T09:56:03;32.30;83.30
30702;DHT22;17451;49.908;7.980;2022-08-19T09:58:29;32.30;81.30
30702;DHT22;17451;49.908;7.980;2022-08-19T10:00:56;32.40;80.80
30702;DHT22;17451;49.908;7.980;2022-08-19T10:03:25;32.40;77.90
30702;DHT22;17451;49.908;7.980;2022-08-19T10:05:52;32.30;79.00
30702;DHT22;17451;49.908;7.980;2022-08-19T10:08:19;32.40;78.10
30702;DHT22;17451;49.908;7.980;2022-08-19T10:10:45;32.70;76.30
30702;DHT22;17451;49.908;7.980;2022-08-19T10:13:11;32.80;75.30
30702;DHT22;17451;49.908;7.980;2022-08-19T10:15:37;32.70;72.80
30702;DHT22;17451;49.908;7.980;2022-08-19T10:18:06;32.60;73.80
30702;DHT22;17451;49.908;7.980;2022-08-19T10:20:31;32.70;72.50
30702;DHT22;17451;49.908;7.980;2022-08-19T10:22:57;32.60;72.90
30702;DHT22;17451;49.908;7.980;2022-08-19T10:25:24;32.80;71.30
30702;DHT22;17451;49.908;7.980;2022-08-19T10:27:51;32.90;70.80
30702;DHT22;17451;49.908;7.980;2022-08-19T10:30:17;33.20;71.20
30702;DHT22;17451;49.908;7.980;2022-08-19T10:32:44;33.40;68.10
30702;DHT22;17451;49.908;7.980;2022-08-19T10:35:11;33.70;67.80
30702;DHT22;17451;49.908;7.980;2022-08-19T10:37:37;34.00;65.70
30702;DHT22;17451;49.908;7.980;2022-08-19T10:40:04;34.10;64.70
30702;DHT22;17451;49.908;7.980;2022-08-19T10:42:31;34.30;65.10
30702;DHT22;17451;49.908;7.980;2022-08-19T10:44:57;34.50;65.10
30702;DHT22;17451;49.908;7.980;2022-08-19T10:47:22;34.70;64.70
30702;DHT22;17451;49.908;7.980;2022-08-19T10:49:48;34.80;63.50
30702;DHT22;17451;49.908;7.980;2022-08-19T10:52:32;35.00;63.00
30702;DHT22;17451;49.908;7.980;2022-08-19T10:55:05;35.40;61.20
30702;DHT22;17451;49.908;7.980;2022-08-19T10:57:49;35.50;60.60
30702;DHT22;17451;49.908;7.980;2022-08-19T11:00:16;35.40;60.40
30702;DHT22;17451;49.908;7.980;2022-08-19T11:02:42;35.30;60.60
30702;DHT22;17451;49.908;7.980;2022-08-19T11:05:09;35.40;59.70
30702;DHT22;17451;49.908;7.980;2022-08-19T11:07:37;35.40;59.30
30702;DHT22;17451;49.908;7.980;2022-08-19T11:10:03;35.70;58.20
30702;DHT22;17451;49.908;7.980;2022-08-19T11:12:29;35.50;58.30
30702;DHT22;17451;49.908;7.980;2022-08-19T11:14:55;35.70;58.20
30702;DHT22;17451;49.908;7.980;2022-08-19T11:17:21;36.00;57.90
30702;DHT22;17451;49.908;7.980;2022-08-19T11:19:49;36.10;56.40
30702;DHT22;17451;49.908;7.980;2022-08-19T11:22:15;36.30;56.70
30702;DHT22;17451;49.908;7.980;2022-08-19T11:24:40;36.50;55.90
30702;DHT22;17451;49.908;7.980;2022-08-19T11:27:07;36.70;55.00
30702;DHT22;17451;49.908;7.980;2022-08-19T11:29:35;37.20;54.30
30702;DHT22;17451;49.908;7.980;2022-08-19T11:32:03;37.60;53.10
30702;DHT22;17451;49.908;7.980;2022-08-19T11:34:29;38.10;54.30
30702;DHT22;17451;49.908;7.980;2022-08-19T11:36:56;38.50;53.00
30702;DHT22;17451;49.908;7.980;2022-08-19T11:39:24;38.80;50.50
30702;DHT22;17451;49.908;7.980;2022-08-19T11:41:53;39.60;50.20
30702;DHT22;17451;49.908;7.980;2022-08-19T11:44:19;40.40;49.50
30702;DHT22;17451;49.908;7.980;2022-08-19T11:46:47;40.90;47.60
30702;DHT22;17451;49.908;7.980;2022-08-19T11:49:22;41.30;46.20
30702;DHT22;17451;49.908;7.980;2022-08-19T11:51:48;41.60;45.60
30702;DHT22;17451;49.908;7.980;2022-08-19T11:54:16;42.00;44.20
30702;DHT22;17451;49.908;7.980;2022-08-19T11:56:42;42.90;43.50
30702;DHT22;17451;49.908;7.980;2022-08-19T11:59:08;44.10;41.30
30702;DHT22;17451;49.908;7.980;2022-08-19T12:01:36;44.70;40.50
30702;DHT22;17451;49.908;7.980;2022-08-19T12:04:01;45.10;40.00
30702;DHT22;17451;49.908;7.980;2022-08-19T12:06:33;45.20;38.90
30702;DHT22;17451;49.908;7.980;2022-08-19T12:09:01;45.50;38.80
30702;DHT22;17451;49.908;7.980;2022-08-19T12:11:27;46.00;37.00
30702;DHT22;17451;49.908;7.980;2022-08-19T12:13:55;46.30;36.50
30702;DHT22;17451;49.908;7.980;2022-08-19T12:16:22;46.80;36.90
30702;DHT22;17451;49.908;7.980;2022-08-19T12:18:52;47.10;35.80
30702;DHT22;17451;49.908;7.980;2022-08-19T12:21:24;47.20;35.90
30702;DHT22;17451;49.908;7.980;2022-08-19T12:23:56;47.10;36.00
30702;DHT22;17451;49.908;7.980;2022-08-19T12:26:25;46.90;35.80
30702;DHT22;17451;49.908;7.980;2022-08-19T12:29:01;47.00;35.70
30702;DHT22;17451;49.908;7.980;2022-08-19T12:31:27;46.90;35.30
30702;DHT22;17451;49.908;7.980;2022-08-19T12:33:53;46.40;35.60
30702;DHT22;17451;49.908;7.980;2022-08-19T12:36:19;46.20;35.00
30702;DHT22;17451;49.908;7.980;2022-08-19T12:38:45;46.30;35.70
30702;DHT22;17451;49.908;7.980;2022-08-19T12:41:13;46.40;35.30
30702;DHT22;17451;49.908;7.980;2022-08-19T12:43:39;46.50;35.80
30702;DHT22;17451;49.908;7.980;2022-08-19T12:46:08;46.90;35.00
30702;DHT22;17451;49.908;7.980;2022-08-19T12:48:34;47.30;34.10
30702;DHT22;17451;49.908;7.980;2022-08-19T12:51:00;47.20;34.30
30702;DHT22;17451;49.908;7.980;2022-08-19T12:53:29;47.00;34.40
30702;DHT22;17451;49.908;7.980;2022-08-19T12:55:55;47.10;33.80
30702;DHT22;17451;49.908;7.980;2022-08-19T12:58:21;47.60;33.80
30702;DHT22;17451;49.908;7.980;2022-08-19T13:00:47;47.60;33.40
30702;DHT22;17451;49.908;7.980;2022-08-19T13:03:14;47.70;33.50
30702;DHT22;17451;49.908;7.980;2022-08-19T13:05:40;47.60;33.60
30702;DHT22;17451;49.908;7.980;2022-08-19T13:08:06;47.80;32.60
30702;DHT22;17451;49.908;7.980;2022-08-19T13:10:33;47.60;33.00
30702;DHT22;17451;49.908;7.980;2022-08-19T13:13:04;47.30;33.00
30702;DHT22;17451;49.908;7.980;2022-08-19T13:15:37;47.10;33.00
30702;DHT22;17451;49.908;7.980;2022-08-19T13:18:04;47.50;33.10
30702;DHT22;17451;49.908;7.980;2022-08-19T13:20:34;47.30;33.00
30702;DHT22;17451;49.908;7.980;2022-08-19T13:23:04;47.50;33.00
30702;DHT22;17451;49.908;7.980;2022-08-19T13:25:32;47.90;32.80
30702;DHT22;17451;49.908;7.980;2022-08-19T13:27:58;47.80;33.10
30702;DHT22;17451;49.908;7.980;2022-08-19T13:30:24;47.70;33.10
30702;DHT22;17451;49.908;7.980;2022-08-19T13:33:09;48.00;32.70
30702;DHT22;17451;49.908;7.980;2022-08-19T13:35:38;48.10;32.00
30702;DHT22;17451;49.908;7.980;2022-08-19T13:38:08;48.80;31.90
30702;DHT22;17451;49.908;7.980;2022-08-19T13:40:36;48.40;32.50
30702;DHT22;17451;49.908;7.980;2022-08-19T13:43:03;48.00;32.70
30702;DHT22;17451;49.908;7.980;2022-08-19T13:45:29;47.40;33.30
30702;DHT22;17451;49.908;7.980;2022-08-19T13:47:59;46.60;33.90
30702;DHT22;17451;49.908;7.980;2022-08-19T13:50:35;46.80;34.00
30702;DHT22;17451;49.908;7.980;2022-08-19T13:53:11;46.80;34.20
30702;DHT22;17451;49.908;7.980;2022-08-19T13:55:40;46.00;34.60
30702;DHT22;17451;49.908;7.980;2022-08-19T13:58:15;44.30;35.90
30702;DHT22;17451;49.908;7.980;2022-08-19T14:00:42;43.00;37.60
30702;DHT22;17451;49.908;7.980;2022-08-19T14:03:08;42.00;38.10
30702;DHT22;17451;49.908;7.980;2022-08-19T14:05:34;41.00;39.50
30702;DHT22;17451;49.908;7.980;2022-08-19T14:08:00;40.20;40.40
30702;DHT22;17451;49.908;7.980;2022-08-19T14:10:28;39.70;41.20
30702;DHT22;17451;49.908;7.980;2022-08-19T14:12:59;39.20;41.90
30702;DHT22;17451;49.908;7.980;2022-08-19T14:15:28;38.90;41.90
30702;DHT22;17451;49.908;7.980;2022-08-19T14:17:54;38.10;43.00
30702;DHT22;17451;49.908;7.980;2022-08-19T14:20:20;37.50;43.70
30702;DHT22;17451;49.908;7.980;2022-08-19T14:22:47;37.30;44.10
30702;DHT22;17451;49.908;7.980;2022-08-19T14:25:17;37.10;44.30
30702;DHT22;17451;49.908;7.980;2022-08-19T14:27:43;36.70;44.60
30702;DHT22;17451;49.908;7.980;2022-08-19T14:30:17;36.40;45.10
30702;DHT22;17451;49.908;7.980;2022-08-19T14:33:24;36.00;46.00
30702;DHT22;17451;49.908;7.980;2022-08-19T14:35:52;35.70;46.80
30702;DHT22;17451;49.908;7.980;2022-08-19T15:35:02;34.20;49.30
30702;DHT22;17451;49.908;7.980;2022-08-19T16:13:32;32.30;52.50
30702;DHT22;17451;49.908;7.980;2022-08-19T16:43:04;31.80;53.30
30702;DHT22;17451;49.908;7.980;2022-08-19T16:51:10;31.70;53.90
30702;DHT22;17451;49.908;7.980;2022-08-19T16:53:46;31.60;53.90
30702;DHT22;17451;49.908;7.980;2022-08-19T16:56:13;31.50;54.00
30702;DHT22;17451;49.908;7.980;2022-08-19T16:58:39;31.40;54.00
30702;DHT22;17451;49.908;7.980;2022-08-19T17:01:06;31.40;54.30
30702;DHT22;17451;49.908;7.980;2022-08-19T17:03:33;31.40;54.40
30702;DHT22;17451;49.908;7.980;2022-08-19T17:06:07;31.30;54.50
30702;DHT22;17451;49.908;7.980;2022-08-19T17:08:36;31.20;54.70
30702;DHT22;17451;49.908;7.980;2022-08-19T17:11:04;31.20;54.50
30702;DHT22;17451;49.908;7.980;2022-08-19T17:16:10;31.20;54.70
30702;DHT22;17451;49.908;7.980;2022-08-19T17:18:38;31.00;54.50
30702;DHT22;17451;49.908;7.980;2022-08-19T17:21:10;31.00;54.50
30702;DHT22;17451;49.908;7.980;2022-08-19T17:23:39;31.00;54.80
30702;DHT22;17451;49.908;7.980;2022-08-19T17:26:11;31.00;55.10
30702;DHT22;17451;49.908;7.980;2022-08-19T17:31:31;30.80;55.70
30702;DHT22;17451;49.908;7.980;2022-08-19T17:33:58;30.80;55.50
30702;DHT22;17451;49.908;7.980;2022-08-19T17:36:24;30.70;55.40
30702;DHT22;17451;49.908;7.980;2022-08-19T17:38:51;30.60;55.70
30702;DHT22;17451;49.908;7.980;2022-08-19T17:41:17;30.70;55.60
30702;DHT22;17451;49.908;7.980;2022-08-19T17:43:43;30.60;55.50
30702;DHT22;17451;49.908;7.980;2022-08-19T17:46:09;30.70;55.80
30702;DHT22;17451;49.908;7.980;2022-08-19T17:48:39;30.60;56.20
30702;DHT22;17451;49.908;7.980;2022-08-19T17:51:18;30.40;56.40
30702;DHT22;17451;49.908;7.980;2022-08-19T17:53:45;30.30;56.50
30702;DHT22;17451;49.908;7.980;2022-08-19T17:56:10;30.30;56.70